PINE FLAT DAM (PNF)

Elevation: 970' · KINGS R basin · Operator: US Army Corps of Engineers

Provisional data, subject to change.
Query executed Thursday at 17:02:44   clock

Select a sensor type for a plot of data.
Note: Reservoir Flows are daily averages.

Earlier

Date RES ELE    STORAGE    RES CHG    TOC STO    ABV TOC    OUTFLOW    INFLOW    FNF    PPT INC    PPTINC4    TEMP MN    TEMP MX    WINDLEN    EVP PAN   
 FEET   AF   AF   AF   AF   CFS   CFS   CFS   INCHES   INCHES   DEG F   DEG F   MILES   INCHES  
07/28/2015 744.54 164146 -3511 1000000 -835854 2172 423 276 0.00 0.00 -- -- 52 0.30
07/29/2015 743.08 160852 -3294 1000000 -839148 2121 482 151 0.00 0.00 -- -- 51 0.31
07/30/2015 741.94 158306 -2546 1000000 -841694 1782 516 214 e 0.00 0.00 -- -- 47 0.24
07/31/2015 740.99 156200 -2106 1000000 -843800 1483 443 308 e 0.00 0.00 -- -- 56 0.28
08/01/2015 740.27 154613 -1587 1000000 -845387 1286 509 340 0.00 0.00 -- -- 61 0.30
08/02/2015 739.57 153079 -1534 1000000 -846921 1169 417 308 e 0.00 0.00 -- -- 52 0.29
08/03/2015 738.93 151684 -1395 1000000 -848316 1101 418 209 e 0.00 0.00 -- -- 50 0.28
08/04/2015 738.19 150078 -1606 1000000 -849922 1120 323 232 0.00 0.00 -- -- 50 0.17
08/05/2015 737.35 148267 -1811 1000000 -851733 1161 263 209 e 0.00 0.00 -- -- 45 0.20
08/06/2015 736.62 146703 -1564 1000000 -853297 1077 304 195 0.00 0.00 -- -- 54 0.22
08/07/2015 736.01 145402 -1301 1000000 -854598 960 324 209 0.00 0.00 -- -- 50 0.27
08/08/2015 735.31 143917 -1485 1000000 -856083 990 262 156 0.00 0.00 -- -- 53 0.28
08/09/2015 734.62 142460 -1457 1000000 -857540 999 285 99 0.00 0.00 -- -- 56 0.28
08/10/2015 733.97 141096 -1364 1000000 -858904 978 311 156 0.00 0.00 -- -- 61 0.28
08/11/2015 733.25 139592 -1504 1000000 -860408 993 254 129 e 0.00 0.00 -- -- 48 0.27
08/12/2015 732.47 137973 -1619 1000000 -862027 993 196 128 e 0.00 0.00 -- -- 51 0.27
08/13/2015 731.83 136652 -1321 1000000 -863348 879 233 145 0.00 0.00 -- -- 58 0.28
08/14/2015 731.44 135850 -802 1000000 -864150 632 247 136 0.00 0.00 -- -- 53 0.27
08/15/2015 731.06 135071 -779 1000000 -864929 622 249 187 e 0.00 0.00 -- -- 49 0.27
08/16/2015 730.65 134233 -838 1000000 -865767 610 207 187 e 0.00 0.00 -- -- 47 0.27
08/17/2015 730.20 133317 -916 1000000 -866683 633 190 158 0.00 0.00 -- -- 52 0.28
08/18/2015 729.71 132323 -994 1000000 -867677 682 199 135 0.00 0.00 -- -- 48 0.26
08/19/2015 729.12 131131 -1192 1000000 -868869 749 167 182 0.00 0.00 -- -- 54 0.27
08/20/2015 728.52 129924 -1207 1000000 -870076 740 149 -41 0.00 0.00 -- -- 57 0.26
08/21/2015 728.15 129184 -740 1000000 -870816 601 246 207 0.00 0.00 -- -- 50 0.25
08/22/2015 727.90 128684 -500 1000000 -871316 382 147 96 0.00 0.00 -- -- 46 0.24
08/23/2015 727.71 128305 -379 1000000 -871695 330 157 168 0.00 0.00 -- -- 54 0.26
08/24/2015 727.52 127927 -378 1000000 -872073 321 148 44 0.00 0.00 -- -- 55 0.26
08/25/2015 727.43 127748 -179 1000000 -872252 335 261 147 0.00 0.00 -- -- 50 0.24
08/26/2015 727.28 127450 -- 1000000 -872550 336 204 203 0.00 0.00 -- -- 55 0.26
08/27/2015 -- -- -- -- -- -- -- -- -- 0.00 -- -- -- --

Later | Latest

Warning! This data is preliminary and subject to revision.

Show PNF Map | Plot PNF Data | 1 Month PNF Data | Real-Time PNF Data | PNF Info